Time;durP1;ratioP1;P1;durP2;ratioP2;P2;SDS_P1;SDS_P2;PMS_P1;PMS_P2;Temp;Humidity;BMP_temperature;BMP_pressure;BME280_temperature;BME280_humidity;BME280_pressure;Samples;Min_cycle;Max_cycle;Signal;HPM_P1;HPM_P2
2021/07/23 00:02:06;;;;;;;16.30;10.73;;;;;;;21.14;53.61;96799.38;5091721;28;20177;-67
2021/07/23 00:04:32;;;;;;;17.77;12.40;;;;;;;21.42;53.15;96804.03;5091230;28;20206;-66
2021/07/23 00:06:57;;;;;;;14.80;10.93;;;;;;;21.19;54.36;96804.81;5094162;28;20196;-66
2021/07/23 00:09:23;;;;;;;15.60;10.73;;;;;;;21.21;53.67;96793.94;5091564;28;20530;-66
2021/07/23 00:11:49;;;;;;;18.00;10.50;;;;;;;21.10;53.88;96787.53;5097994;28;20176;-66
2021/07/23 00:14:14;;;;;;;13.27;9.80;;;;;;;20.86;54.76;96790.19;5092890;28;20173;-65
2021/07/23 00:16:40;;;;;;;12.23;9.90;;;;;;;20.78;54.91;96795.84;5091470;28;20187;-66
2021/07/23 00:19:05;;;;;;;13.97;10.70;;;;;;;20.71;55.19;96786.06;5083567;28;20657;-66
2021/07/23 00:21:31;;;;;;;13.00;10.10;;;;;;;20.54;55.64;96782.44;5091229;28;20193;-66
2021/07/23 00:23:56;;;;;;;14.43;9.93;;;;;;;20.67;55.35;96782.22;5085966;28;20177;-65
2021/07/23 00:26:22;;;;;;;12.07;10.00;;;;;;;20.73;54.66;96783.16;5091002;28;20541;-65
2021/07/23 00:28:48;;;;;;;13.30;9.70;;;;;;;21.20;54.33;96782.44;5091619;28;20201;-66
2021/07/23 00:31:14;;;;;;;13.67;10.47;;;;;;;20.59;55.30;96785.22;5091296;28;20185;-66
2021/07/23 00:33:39;;;;;;;16.30;9.83;;;;;;;20.66;54.79;96791.25;5091047;28;20253;-65
2021/07/23 00:36:05;;;;;;;14.40;10.20;;;;;;;20.29;55.73;96788.66;5092876;28;20426;-66
2021/07/23 00:38:30;;;;;;;14.30;10.50;;;;;;;20.63;54.95;96785.56;5090912;28;20205;-66
2021/07/23 00:40:56;;;;;;;15.13;9.50;;;;;;;21.07;54.60;96783.50;5091221;28;20205;-68
2021/07/23 00:43:23;;;;;;;13.80;9.83;;;;;;;20.64;55.77;96785.34;5090955;28;20193;-66
2021/07/23 00:45:49;;;;;;;15.80;10.93;;;;;;;20.47;56.20;96779.88;5091181;28;20930;-67
2021/07/23 00:48:14;;;;;;;13.70;10.80;;;;;;;20.51;56.06;96781.00;5089907;28;20354;-67
2021/07/23 00:50:40;;;;;;;15.87;10.37;;;;;;;20.72;55.92;96782.34;5084317;28;20503;-66
2021/07/23 00:53:06;;;;;;;13.97;9.90;;;;;;;20.93;54.21;96776.75;5091110;28;20178;-66
2021/07/23 00:55:31;;;;;;;15.87;10.50;;;;;;;20.76;54.91;96773.94;5089675;28;20173;-66
2021/07/23 00:57:58;;;;;;;13.60;9.70;;;;;;;20.49;56.01;96782.28;5090184;28;20613;-66
2021/07/23 01:00:24;;;;;;;17.33;10.23;;;;;;;20.41;56.47;96775.44;5095648;28;20221;-66
2021/07/23 01:02:52;;;;;;;13.93;10.10;;;;;;;20.36;56.78;96772.63;5096111;28;20894;-66
2021/07/23 01:05:18;;;;;;;14.67;9.90;;;;;;;20.56;56.15;96778.50;5091218;28;20436;-65
2021/07/23 01:07:44;;;;;;;15.17;11.10;;;;;;;20.07;57.41;96775.84;5091700;28;20451;-66
2021/07/23 01:10:10;;;;;;;14.10;9.80;;;;;;;20.32;56.61;96777.59;5092149;28;20258;-67
2021/07/23 01:12:36;;;;;;;13.47;9.10;;;;;;;20.46;56.00;96775.56;5092028;28;20452;-66
2021/07/23 01:15:02;;;;;;;15.03;9.87;;;;;;;20.30;56.22;96769.00;5106135;28;20249;-66
2021/07/23 01:17:28;;;;;;;20.07;10.53;;;;;;;20.26;56.55;96762.53;5100009;28;20424;-67
2021/07/23 01:20:20;;;;;;;17.73;10.40;;;;;;;20.35;56.11;96766.50;5082859;28;20527;-65
2021/07/23 01:22:47;;;;;;;15.97;10.30;;;;;;;20.54;55.08;96766.47;5080877;28;20201;-66
2021/07/23 01:25:13;;;;;;;22.00;10.73;;;;;;;20.80;54.47;96762.59;5092142;28;20890;-65
2021/07/23 01:27:51;;;;;;;13.60;9.80;;;;;;;20.26;56.18;96763.34;5093333;28;20436;-66
2021/07/23 01:30:18;;;;;;;12.37;10.30;;;;;;;20.28;56.38;96765.78;5094493;28;20423;-65
2021/07/23 01:32:44;;;;;;;17.90;9.97;;;;;;;20.59;56.35;96766.56;5093478;28;20518;-66
2021/07/23 01:35:10;;;;;;;12.63;9.70;;;;;;;20.52;55.80;96766.66;5094461;28;20420;-67
2021/07/23 01:37:38;;;;;;;12.90;10.07;;;;;;;20.52;55.33;96756.03;5094750;28;20736;-64
2021/07/23 01:40:04;;;;;;;14.63;10.20;;;;;;;20.34;55.91;96764.06;5094815;28;20482;-64
2021/07/23 01:42:31;;;;;;;16.07;10.00;;;;;;;20.74;54.55;96752.03;5095117;28;20424;-64
2021/07/23 01:44:57;;;;;;;15.03;9.83;;;;;;;20.62;55.44;96755.47;5094477;28;20424;-66
2021/07/23 01:47:22;;;;;;;18.63;10.30;;;;;;;20.36;56.42;96756.66;5094790;28;20491;-65
2021/07/23 01:49:48;;;;;;;14.10;10.00;;;;;;;20.33;56.36;96755.25;5086842;28;20711;-65
2021/07/23 01:52:14;;;;;;;14.93;9.87;;;;;;;20.36;56.17;96752.16;5094773;28;20459;-69
2021/07/23 01:54:39;;;;;;;12.70;9.50;;;;;;;20.58;55.91;96754.31;5094302;28;20272;-66
2021/07/23 01:57:05;;;;;;;14.43;9.93;;;;;;;20.50;55.71;96749.31;5093903;28;20547;-66
2021/07/23 01:59:31;;;;;;;12.03;9.10;;;;;;;20.39;57.49;96750.88;5093797;28;20197;-66
2021/07/23 02:01:56;;;;;;;17.20;8.60;;;;;;;20.67;55.19;96747.59;5094429;28;20213;-66
2021/07/23 02:04:23;;;;;;;12.53;10.00;;;;;;;20.47;55.45;96749.75;5098663;28;20182;-65
2021/07/23 02:06:49;;;;;;;15.50;9.80;;;;;;;20.76;54.34;96749.97;5095838;28;20178;-67
2021/07/23 02:09:14;;;;;;;13.63;10.30;;;;;;;21.11;53.78;96746.56;5104483;28;20440;-65
2021/07/23 02:11:40;;;;;;;13.73;9.87;;;;;;;20.87;54.38;96743.88;5108099;28;20241;-65
2021/07/23 02:14:07;;;;;;;14.43;9.73;;;;;;;20.54;55.47;96750.50;5102797;28;20208;-65
2021/07/23 02:16:36;;;;;;;14.07;10.07;;;;;;;20.76;54.86;96745.47;5101147;28;20535;-65
2021/07/23 02:19:03;;;;;;;13.13;10.20;;;;;;;20.62;55.11;96746.66;5086288;28;20448;-67
2021/07/23 02:21:28;;;;;;;12.70;9.60;;;;;;;20.60;54.97;96746.91;5093668;28;20470;-66
2021/07/23 02:23:54;;;;;;;12.80;9.93;;;;;;;20.59;54.85;96741.81;5087729;28;20428;-66
2021/07/23 02:26:21;;;;;;;14.00;10.07;;;;;;;20.35;55.67;96745.22;5093535;28;20576;-67
2021/07/23 02:28:48;;;;;;;12.53;9.50;;;;;;;20.28;56.12;96743.69;5093733;28;20350;-66
2021/07/23 02:31:14;;;;;;;11.43;9.30;;;;;;;20.05;56.93;96740.69;5093938;28;20735;-65
2021/07/23 02:33:39;;;;;;;15.07;10.10;;;;;;;20.01;57.28;96739.53;5095061;28;20438;-65
2021/07/23 02:36:05;;;;;;;14.77;10.80;;;;;;;19.85;58.08;96734.78;5093140;28;20666;-66
2021/07/23 02:38:31;;;;;;;11.80;9.47;;;;;;;19.68;58.64;96731.91;5091942;28;20237;-65
2021/07/23 02:40:57;;;;;;;12.00;9.93;;;;;;;19.76;58.76;96727.13;5097745;28;20475;-66
2021/07/23 02:43:23;;;;;;;13.70;9.80;;;;;;;19.75;58.62;96722.84;5093198;28;20177;-67
2021/07/23 02:45:49;;;;;;;15.30;10.50;;;;;;;19.82;58.31;96724.59;5093399;28;20184;-67
2021/07/23 02:48:15;;;;;;;17.77;10.67;;;;;;;19.59;59.39;96728.75;5091877;28;20439;-65
2021/07/23 02:50:40;;;;;;;13.27;10.73;;;;;;;19.71;59.31;96728.81;5087099;28;20614;-66
2021/07/23 02:53:06;;;;;;;12.80;9.97;;;;;;;19.68;58.84;96719.44;5093333;28;20598;-66
2021/07/23 02:55:32;;;;;;;13.50;10.47;;;;;;;19.76;58.70;96724.47;5092913;28;20177;-67
2021/07/23 02:57:57;;;;;;;19.07;10.33;;;;;;;19.74;58.63;96723.03;5092665;28;20259;-67
2021/07/23 03:00:23;;;;;;;13.47;10.37;;;;;;;19.74;58.26;96723.88;5093104;28;20292;-66
2021/07/23 03:02:49;;;;;;;15.90;10.00;;;;;;;19.93;57.55;96722.03;5093150;28;20178;-66
2021/07/23 03:05:15;;;;;;;15.23;10.00;;;;;;;20.01;57.43;96723.56;5092194;28;20431;-65
2021/07/23 03:07:40;;;;;;;17.90;9.37;;;;;;;20.33;57.66;96715.34;5093147;28;20524;-67
2021/07/23 03:10:07;;;;;;;13.83;9.50;;;;;;;20.76;55.58;96710.84;5092417;28;20516;-66
2021/07/23 03:12:36;;;;;;;13.00;10.37;;;;;;;20.99;54.64;96707.41;5099112;28;20269;-66
2021/07/23 03:15:03;;;;;;;15.20;10.40;;;;;;;21.13;52.68;96705.31;5081637;28;20428;-67
2021/07/23 03:17:29;;;;;;;13.97;9.80;;;;;;;20.84;54.28;96715.03;5092577;28;20420;-67
2021/07/23 03:19:54;;;;;;;13.07;9.53;;;;;;;20.66;55.92;96713.25;5084707;28;20451;-66
2021/07/23 03:22:20;;;;;;;16.07;9.80;;;;;;;20.48;55.76;96703.47;5074431;28;20190;-68
2021/07/23 03:24:45;;;;;;;13.83;10.30;;;;;;;20.41;57.08;96706.25;5089381;28;20178;-65
2021/07/23 03:27:11;;;;;;;14.87;10.63;;;;;;;20.72;54.94;96707.81;5091474;28;20177;-67
2021/07/23 03:29:37;;;;;;;12.80;10.30;;;;;;;20.56;55.10;96703.16;5092149;28;20683;-66
2021/07/23 03:32:04;;;;;;;14.80;10.67;;;;;;;20.43;55.21;96704.16;5092291;28;20596;-68
2021/07/23 03:34:30;;;;;;;13.67;10.20;;;;;;;20.44;55.12;96702.31;5090699;28;20436;-66
2021/07/23 03:36:56;;;;;;;11.93;9.20;;;;;;;20.67;55.76;96702.34;5092169;28;20434;-66
2021/07/23 03:39:21;;;;;;;17.33;9.53;;;;;;;20.81;54.67;96699.50;5091129;28;20217;-66
2021/07/23 03:41:47;;;;;;;12.77;10.20;;;;;;;20.89;53.58;96691.19;5092282;28;21203;-66
2021/07/23 03:44:12;;;;;;;14.17;9.90;;;;;;;20.80;55.03;96705.88;5091187;28;20229;-67
2021/07/23 03:46:38;;;;;;;20.33;10.40;;;;;;;20.88;53.82;96702.88;5091169;28;20231;-67
2021/07/23 03:49:04;;;;;;;13.07;9.53;;;;;;;21.09;53.70;96698.00;5091494;28;20198;-66
2021/07/23 03:51:29;;;;;;;13.30;9.43;;;;;;;21.36;53.38;96701.00;5091630;28;20184;-65
2021/07/23 03:53:55;;;;;;;12.20;9.30;;;;;;;21.79;52.00;96697.13;5085743;28;20702;-66
2021/07/23 03:56:20;;;;;;;11.67;9.47;;;;;;;22.18;50.60;96707.16;5093031;28;20212;-67
2021/07/23 03:58:46;;;;;;;12.93;10.57;;;;;;;22.23;49.91;96699.28;5085915;28;20740;-66
2021/07/23 04:01:11;;;;;;;15.43;9.10;;;;;;;22.33;50.32;96703.16;5091337;28;20201;-66
2021/07/23 04:03:37;;;;;;;11.83;9.30;;;;;;;22.05;51.72;96708.28;5089877;28;20689;-68
2021/07/23 04:06:02;;;;;;;14.33;10.83;;;;;;;22.01;50.52;96711.66;5091228;28;20272;-66
2021/07/23 04:08:28;;;;;;;13.77;10.33;;;;;;;21.96;50.65;96715.06;5091499;28;20201;-67
2021/07/23 04:10:56;;;;;;;14.60;10.73;;;;;;;21.63;51.77;96711.19;5091879;28;20182;-67
2021/07/23 04:13:22;;;;;;;12.77;9.47;;;;;;;21.29;53.37;96710.97;5090876;28;20196;-68
2021/07/23 04:15:47;;;;;;;12.87;9.30;;;;;;;21.28;53.53;96714.69;5100060;28;20451;-67
2021/07/23 04:18:13;;;;;;;13.17;11.03;;;;;;;21.18;53.18;96707.28;5090885;28;20879;-67
2021/07/23 04:20:38;;;;;;;12.47;9.73;;;;;;;20.91;53.84;96725.56;5091131;28;20315;-66
2021/07/23 04:23:04;;;;;;;13.47;9.70;;;;;;;21.42;54.19;96717.94;5090462;28;20178;-66
2021/07/23 04:25:30;;;;;;;10.47;8.83;;;;;;;21.99;52.03;96708.44;5089454;28;20185;-67
2021/07/23 04:27:55;;;;;;;13.23;9.90;;;;;;;21.81;52.26;96717.41;5091291;28;20201;-66
2021/07/23 04:30:21;;;;;;;12.17;9.77;;;;;;;22.08;51.50;96715.00;5089618;28;20219;-67
2021/07/23 04:32:47;;;;;;;15.60;10.00;;;;;;;21.90;51.28;96708.81;5091167;28;20225;-67
2021/07/23 04:35:12;;;;;;;18.70;10.53;;;;;;;21.41;52.31;96716.31;5090416;28;20205;-65
2021/07/23 04:37:38;;;;;;;12.90;10.03;;;;;;;21.08;54.18;96713.19;5090874;28;20248;-66
2021/07/23 04:40:06;;;;;;;15.40;10.40;;;;;;;21.02;53.66;96722.94;5090751;28;20339;-67
2021/07/23 04:42:32;;;;;;;15.67;9.80;;;;;;;20.81;56.06;96715.47;5093456;28;20525;-65
2021/07/23 04:44:58;;;;;;;12.77;10.10;;;;;;;21.14;54.29;96714.91;5090548;28;20924;-67
2021/07/23 04:47:24;;;;;;;12.07;10.70;;;;;;;21.06;53.60;96722.44;5090780;28;20416;-67
2021/07/23 04:49:50;;;;;;;15.17;10.53;;;;;;;21.03;55.00;96731.72;5089394;28;20974;-67
2021/07/23 04:52:16;;;;;;;14.03;9.83;;;;;;;21.27;53.87;96724.56;5090966;28;20181;-68
2021/07/23 04:54:41;;;;;;;13.57;10.03;;;;;;;21.66;53.12;96725.91;5090459;28;20578;-66
2021/07/23 04:57:12;;;;;;;14.13;10.50;;;;;;;21.91;52.28;96723.78;5086460;28;20265;-65
2021/07/23 04:59:38;;;;;;;17.53;11.00;;;;;;;21.88;52.93;96726.91;5095092;28;20431;-67
2021/07/23 05:02:04;;;;;;;18.60;10.90;;;;;;;21.79;53.24;96733.66;5094755;28;20929;-67
2021/07/23 05:04:30;;;;;;;17.20;10.83;;;;;;;21.85;53.00;96729.25;5097373;28;20982;-66
2021/07/23 05:06:56;;;;;;;17.60;10.90;;;;;;;21.91;51.45;96722.94;5094153;28;20181;-66
2021/07/23 05:09:21;;;;;;;12.50;9.43;;;;;;;22.34;51.41;96721.63;5095298;28;20447;-67
2021/07/23 05:11:47;;;;;;;13.53;9.67;;;;;;;22.82;50.26;96718.69;5095208;28;20269;-66
2021/07/23 05:14:13;;;;;;;13.23;9.40;;;;;;;23.10;49.59;96723.13;5093472;28;20190;-67
2021/07/23 05:16:39;;;;;;;15.07;9.40;;;;;;;23.29;48.72;96720.25;5094747;28;20189;-64
2021/07/23 05:19:05;;;;;;;16.87;9.83;;;;;;;23.41;48.46;96720.94;5094705;28;20526;-66
2021/07/23 05:21:31;;;;;;;13.77;9.93;;;;;;;23.37;48.41;96721.69;5094609;28;20559;-67
2021/07/23 05:24:03;;;;;;;13.80;9.73;;;;;;;23.44;48.64;96715.06;5086366;28;20552;-66
2021/07/23 05:26:30;;;;;;;15.13;10.30;;;;;;;23.31;48.20;96718.13;5086039;28;20238;-65
2021/07/23 05:28:57;;;;;;;14.43;10.30;;;;;;;23.15;49.89;96717.88;5095005;28;20538;-65
2021/07/23 05:31:23;;;;;;;16.33;9.47;;;;;;;23.39;48.83;96715.03;5094737;28;20579;-66
2021/07/23 05:33:48;;;;;;;17.40;10.93;;;;;;;23.25;49.19;96713.75;5092846;28;20522;-66
2021/07/23 05:36:14;;;;;;;14.30;11.10;;;;;;;23.40;48.75;96716.66;5095290;28;20181;-66
2021/07/23 05:38:41;;;;;;;15.03;10.40;;;;;;;22.88;49.28;96717.72;5095015;28;20223;-66
2021/07/23 05:41:08;;;;;;;12.17;9.37;;;;;;;23.09;49.65;96716.16;5094746;28;20825;-66
2021/07/23 05:43:34;;;;;;;14.07;10.20;;;;;;;22.55;50.15;96719.31;5094537;28;20178;-69
2021/07/23 05:46:06;;;;;;;14.50;10.70;;;;;;;22.37;50.80;96720.31;5097339;28;20415;-66
2021/07/23 05:48:34;;;;;;;16.40;10.90;;;;;;;22.67;50.36;96716.59;5097692;28;20201;-66
2021/07/23 05:51:04;;;;;;;16.60;10.40;;;;;;;22.60;50.84;96724.78;5095528;28;20969;-66
2021/07/23 05:53:30;;;;;;;15.50;10.47;;;;;;;23.07;48.81;96720.94;5094837;28;20473;-66
2021/07/23 05:55:58;;;;;;;16.17;11.33;;;;;;;22.49;49.78;96723.78;5094584;28;20416;-67
2021/07/23 05:58:25;;;;;;;10.53;9.00;;;;;;;23.00;49.91;96720.31;5094329;28;20471;-66
2021/07/23 06:00:51;;;;;;;14.13;9.27;;;;;;;22.92;49.80;96720.72;5094943;28;20459;-65
2021/07/23 06:03:16;;;;;;;17.10;10.60;;;;;;;22.99;49.19;96726.72;5093072;28;20518;-66
2021/07/23 06:05:42;;;;;;;13.50;10.90;;;;;;;23.14;48.84;96729.63;5089620;28;20638;-66
2021/07/23 06:08:07;;;;;;;15.73;10.80;;;;;;;23.05;49.21;96728.41;5092997;28;20197;-65
2021/07/23 06:10:33;;;;;;;14.50;10.33;;;;;;;22.75;49.91;96726.88;5096886;28;20177;-65
2021/07/23 06:12:58;;;;;;;17.37;10.33;;;;;;;23.32;48.98;96730.41;5094182;28;20668;-66
2021/07/23 06:15:24;;;;;;;13.83;10.00;;;;;;;23.38;49.05;96728.63;5093925;28;20181;-64
2021/07/23 06:17:50;;;;;;;13.47;9.87;;;;;;;23.85;46.78;96730.84;5094347;28;20223;-67
2021/07/23 06:20:15;;;;;;;24.53;9.30;;;;;;;24.32;46.80;96731.38;5094482;28;20209;-65
2021/07/23 06:22:41;;;;;;;15.00;10.13;;;;;;;24.62;45.42;96725.50;5105286;28;20197;-64
2021/07/23 06:25:07;;;;;;;14.27;10.33;;;;;;;24.53;45.62;96727.03;5104514;28;20285;-66
2021/07/23 06:27:33;;;;;;;11.33;9.80;;;;;;;24.22;46.57;96726.72;5094884;28;20208;-66
2021/07/23 06:29:58;;;;;;;12.70;10.23;;;;;;;24.50;46.01;96725.69;5094101;28;20439;-66
2021/07/23 06:32:26;;;;;;;15.53;10.47;;;;;;;24.54;46.57;96724.09;5094907;28;20181;-67
2021/07/23 06:34:52;;;;;;;13.67;8.97;;;;;;;24.34;47.58;96727.38;5094230;28;20177;-66
2021/07/23 06:37:20;;;;;;;14.63;11.00;;;;;;;24.77;46.30;96716.81;5103244;28;20985;-66
2021/07/23 06:39:49;;;;;;;19.60;11.10;;;;;;;24.83;46.43;96714.97;5104162;28;20214;-65
2021/07/23 06:42:15;;;;;;;18.00;10.93;;;;;;;24.84;46.17;96719.28;5095507;28;20850;-65
2021/07/23 06:44:41;;;;;;;14.70;10.97;;;;;;;25.06;45.31;96719.16;5093613;28;20431;-66
2021/07/23 06:47:07;;;;;;;16.33;9.80;;;;;;;25.25;44.94;96719.56;5093875;28;20447;-67
2021/07/23 06:49:32;;;;;;;15.00;10.87;;;;;;;25.49;44.47;96721.88;5096627;28;20721;-66
2021/07/23 06:51:58;;;;;;;11.87;9.43;;;;;;;25.04;45.78;96721.28;5093761;28;20178;-67
2021/07/23 06:54:23;;;;;;;15.83;11.40;;;;;;;25.47;44.01;96718.63;5091739;28;20249;-64
2021/07/23 06:56:51;;;;;;;15.60;11.83;;;;;;;25.81;43.05;96725.50;5093194;28;20188;-66
2021/07/23 06:59:17;;;;;;;17.57;11.87;;;;;;;26.49;41.53;96721.94;5093202;28;20704;-66
2021/07/23 07:01:43;;;;;;;16.67;11.40;;;;;;;26.92;40.71;96721.72;5093492;28;20569;-65
2021/07/23 07:04:08;;;;;;;13.03;10.03;;;;;;;26.82;40.44;96717.97;5086711;28;20575;-66
2021/07/23 07:06:34;;;;;;;17.73;10.93;;;;;;;26.43;41.21;96721.13;5092535;28;20204;-64
2021/07/23 07:08:59;;;;;;;15.03;11.60;;;;;;;26.63;40.87;96720.34;5095602;28;20213;-65
2021/07/23 07:11:25;;;;;;;13.40;10.67;;;;;;;25.97;42.64;96710.25;5093027;28;20170;-64
2021/07/23 07:13:50;;;;;;;17.80;10.63;;;;;;;25.18;45.28;96721.69;5093536;28;20266;-64
2021/07/23 07:16:16;;;;;;;14.27;11.13;;;;;;;26.14;42.50;96715.44;5092719;28;20197;-66
2021/07/23 07:18:42;;;;;;;19.77;11.63;;;;;;;26.42;42.35;96724.06;5093190;28;20226;-66
2021/07/23 07:21:07;;;;;;;14.03;10.30;;;;;;;26.86;41.52;96715.53;5092199;28;20552;-66
2021/07/23 07:23:33;;;;;;;12.93;10.63;;;;;;;26.68;40.86;96717.66;5069562;28;20307;-65
2021/07/23 07:25:59;;;;;;;14.37;10.57;;;;;;;25.39;43.32;96713.75;5092550;28;20214;-64
2021/07/23 07:28:24;;;;;;;14.57;10.60;;;;;;;25.88;42.01;96708.09;5092917;28;20210;-65
2021/07/23 07:30:50;;;;;;;15.63;11.60;;;;;;;25.38;44.62;96717.50;5093196;28;20182;-65
2021/07/23 07:33:16;;;;;;;13.67;10.90;;;;;;;25.82;43.82;96709.16;5091512;28;20189;-67
2021/07/23 07:35:45;;;;;;;14.30;11.00;;;;;;;26.15;43.31;96707.13;5088508;28;20269;-67
2021/07/23 07:38:11;;;;;;;14.20;10.93;;;;;;;26.33;42.74;96713.88;5092577;28;20213;-67
2021/07/23 07:40:38;;;;;;;14.87;10.30;;;;;;;26.46;42.70;96711.72;5091504;28;20452;-64
2021/07/23 07:43:06;;;;;;;12.20;10.37;;;;;;;27.03;40.89;96704.50;5094477;28;20444;-66
2021/07/23 07:45:32;;;;;;;15.90;10.30;;;;;;;27.16;40.80;96707.72;5058869;28;20423;-64
2021/07/23 07:47:58;;;;;;;19.70;11.13;;;;;;;27.33;40.30;96707.41;5093050;28;20428;-66
2021/07/23 07:50:24;;;;;;;14.00;10.33;;;;;;;26.94;40.95;96711.50;5092980;28;20423;-66
2021/07/23 07:52:49;;;;;;;13.53;11.00;;;;;;;27.13;40.69;96709.06;5094395;28;20185;-68
2021/07/23 07:55:17;;;;;;;13.70;10.80;;;;;;;27.06;40.86;96703.16;5094143;28;20193;-67
2021/07/23 07:57:42;;;;;;;18.00;10.80;;;;;;;27.40;40.76;96706.03;5095972;28;20209;-67
2021/07/23 08:00:09;;;;;;;17.43;10.67;;;;;;;27.59;39.74;96700.09;5092686;28;20440;-67
2021/07/23 08:02:34;;;;;;;12.77;10.43;;;;;;;27.51;39.34;96706.03;5075001;28;20181;-67
2021/07/23 08:05:00;;;;;;;16.53;10.90;;;;;;;27.95;38.97;96697.25;5088996;28;20937;-68
2021/07/23 08:07:32;;;;;;;14.80;9.70;;;;;;;28.04;39.49;96694.75;5092790;28;20186;-67
2021/07/23 08:10:01;;;;;;;20.53;11.97;;;;;;;28.20;39.13;96698.22;5095916;28;20725;-67
2021/07/23 08:12:26;;;;;;;18.20;10.30;;;;;;;27.88;39.39;96694.88;5084642;28;20430;-67
2021/07/23 08:14:52;;;;;;;15.83;11.07;;;;;;;27.79;39.71;96693.81;5092878;28;20424;-67
2021/07/23 08:17:18;;;;;;;19.93;11.10;;;;;;;27.48;40.22;96688.56;5093952;28;20568;-67
2021/07/23 08:19:44;;;;;;;15.30;10.27;;;;;;;28.13;38.94;96689.63;5096751;28;20205;-66
2021/07/23 08:22:10;;;;;;;14.10;9.90;;;;;;;28.17;38.95;96691.47;5094463;28;20454;-67
2021/07/23 08:24:36;;;;;;;16.93;10.73;;;;;;;27.70;39.88;96690.91;5089782;28;20258;-66
2021/07/23 08:27:03;;;;;;;19.10;11.20;;;;;;;26.87;41.53;96686.78;5095541;28;20177;-68
2021/07/23 08:29:28;;;;;;;13.87;10.10;;;;;;;27.69;39.83;96689.28;5093491;28;20436;-66
2021/07/23 08:31:54;;;;;;;17.13;10.10;;;;;;;28.00;39.59;96683.75;5093218;28;20424;-67
2021/07/23 08:34:19;;;;;;;16.60;10.60;;;;;;;28.24;39.29;96677.69;5088258;28;20212;-66
2021/07/23 08:36:45;;;;;;;12.90;11.00;;;;;;;27.40;40.22;96681.84;5093306;28;20251;-67
2021/07/23 08:39:11;;;;;;;15.83;10.80;;;;;;;26.35;42.29;96689.41;5092786;28;20213;-66
2021/07/23 08:41:36;;;;;;;16.57;11.03;;;;;;;26.11;43.12;96676.50;5092568;28;20687;-67
2021/07/23 08:44:03;;;;;;;14.63;11.37;;;;;;;26.97;42.36;96684.06;5092254;28;20606;-68
2021/07/23 08:46:29;;;;;;;18.80;10.83;;;;;;;27.27;41.61;96680.53;5092795;28;20201;-65
2021/07/23 08:48:56;;;;;;;16.20;11.00;;;;;;;28.07;39.74;96680.75;5086135;28;20565;-66
2021/07/23 08:51:22;;;;;;;17.77;10.80;;;;;;;28.49;38.50;96678.59;5092042;28;20430;-67
2021/07/23 08:53:48;;;;;;;11.70;10.50;;;;;;;28.75;38.46;96681.13;5092979;28;20507;-65
2021/07/23 08:56:13;;;;;;;12.13;9.83;;;;;;;28.90;37.79;96678.28;5094219;28;20657;-67
2021/07/23 08:58:39;;;;;;;23.10;10.80;;;;;;;28.75;37.56;96686.50;5093362;28;20210;-67
2021/07/23 09:01:06;;;;;;;15.43;10.57;;;;;;;28.93;37.30;96683.13;5092552;28;20288;-69
2021/07/23 09:03:33;;;;;;;16.83;10.50;;;;;;;28.73;37.52;96691.41;5091811;28;20356;-66
2021/07/23 09:06:13;;;;;;;13.87;10.63;;;;;;;27.48;40.08;96676.97;5090286;28;20902;-66
2021/07/23 09:08:50;;;;;;;16.60;9.80;;;;;;;28.45;38.17;96677.56;5090411;28;20467;-67
2021/07/23 09:11:26;;;;;;;12.90;11.00;;;;;;;29.17;36.48;96679.66;5091731;28;20438;-68
2021/07/23 09:13:51;;;;;;;20.93;11.10;;;;;;;29.05;37.96;96684.63;5091778;28;20434;-68
2021/07/23 09:16:24;;;;;;;18.37;12.43;;;;;;;28.86;38.40;96679.94;5092974;28;20428;-67
2021/07/23 09:19:05;;;;;;;14.20;11.03;;;;;;;29.23;37.45;96680.41;5094969;28;20280;-68
2021/07/23 09:21:33;;;;;;;15.33;10.73;;;;;;;29.99;36.36;96667.13;5083998;28;20814;-66
2021/07/23 09:23:58;;;;;;;14.23;10.90;;;;;;;29.01;37.73;96678.19;5068057;28;20531;-66
2021/07/23 09:26:26;;;;;;;14.77;11.40;;;;;;;29.25;37.96;96679.03;5091554;28;20447;-66
2021/07/23 09:28:52;;;;;;;15.10;11.50;;;;;;;29.80;36.59;96663.59;5088290;28;20210;-67
2021/07/23 09:31:23;;;;;;;17.00;11.70;;;;;;;29.71;36.84;96666.91;5084660;28;20443;-67
2021/07/23 09:33:53;;;;;;;20.90;12.67;;;;;;;29.80;36.46;96672.47;5083929;28;20475;-66
2021/07/23 09:36:19;;;;;;;17.63;11.33;;;;;;;29.99;35.82;96664.41;5091155;28;20528;-66
2021/07/23 09:38:46;;;;;;;19.77;11.50;;;;;;;29.64;37.14;96673.75;5091164;28;20540;-67
2021/07/23 09:41:20;;;;;;;17.07;11.80;;;;;;;29.66;36.53;96668.88;5091281;28;20721;-67
2021/07/23 09:43:49;;;;;;;15.50;12.33;;;;;;;29.78;36.07;96663.84;5094511;28;20502;-66
2021/07/23 09:46:18;;;;;;;15.40;11.83;;;;;;;29.78;35.96;96661.16;5090041;28;20431;-66
2021/07/23 09:48:44;;;;;;;17.90;11.03;;;;;;;29.95;36.15;96647.19;5092802;28;20443;-65
2021/07/23 09:51:10;;;;;;;15.30;11.73;;;;;;;30.37;34.75;96649.28;5095090;28;20733;-66
2021/07/23 09:53:36;;;;;;;19.53;11.30;;;;;;;29.91;35.88;96650.72;5098615;28;20428;-65
2021/07/23 09:56:06;;;;;;;16.77;12.23;;;;;;;28.84;37.39;96649.78;5096082;28;20537;-68
2021/07/23 09:58:35;;;;;;;19.03;11.60;;;;;;;29.69;35.87;96652.91;5096595;28;20197;-68
2021/07/23 10:01:01;;;;;;;15.47;10.80;;;;;;;30.06;35.46;96642.44;5094827;28;20585;-65
2021/07/23 10:03:27;;;;;;;15.20;10.97;;;;;;;30.58;34.55;96636.28;5096028;28;20452;-65
2021/07/23 10:06:03;;;;;;;13.13;10.80;;;;;;;30.90;33.76;96638.16;5094500;28;20219;-65
2021/07/23 10:08:33;;;;;;;16.00;10.23;;;;;;;30.10;35.33;96629.97;5093859;28;20201;-66
2021/07/23 10:11:01;;;;;;;15.00;10.57;;;;;;;30.47;34.79;96631.00;5095060;28;20489;-66
2021/07/23 10:13:29;;;;;;;13.27;10.90;;;;;;;29.51;35.69;96630.19;5093900;28;20447;-66
2021/07/23 10:15:55;;;;;;;11.60;10.30;;;;;;;30.56;34.58;96628.44;5093898;28;20858;-66
2021/07/23 10:18:22;;;;;;;12.90;9.80;;;;;;;30.82;34.10;96619.88;5094642;28;20440;-65
2021/07/23 10:20:48;;;;;;;15.73;11.10;;;;;;;31.00;33.79;96612.00;5095052;28;20487;-67
2021/07/23 10:23:21;;;;;;;17.20;10.10;;;;;;;31.59;32.77;96614.09;5088975;28;20536;-65
2021/07/23 10:25:51;;;;;;;13.20;9.60;;;;;;;31.65;30.60;96612.91;5093459;28;20184;-66
2021/07/23 10:28:36;;;;;;;11.60;8.47;;;;;;;31.31;29.64;96606.81;5094509;28;20443;-66
2021/07/23 10:31:09;;;;;;;11.90;9.03;;;;;;;31.58;29.27;96607.06;5100913;28;20408;-67
2021/07/23 10:33:55;;;;;;;11.00;9.07;;;;;;;31.49;30.28;96599.69;5100345;28;20439;-66
2021/07/23 10:36:26;;;;;;;15.93;7.93;;;;;;;31.58;29.81;96599.78;5110152;28;20515;-67
2021/07/23 10:39:04;;;;;;;13.03;8.13;;;;;;;32.19;29.14;96602.22;5095160;28;20524;-65
2021/07/23 10:41:41;;;;;;;19.20;9.30;;;;;;;32.27;28.50;96598.00;5096258;28;20461;-68
2021/07/23 10:44:29;;;;;;;19.57;8.80;;;;;;;32.09;29.24;96588.91;5103010;28;20424;-65
2021/07/23 10:46:56;;;;;;;12.77;9.63;;;;;;;32.36;29.48;96596.13;5104587;28;20420;-67
2021/07/23 10:49:24;;;;;;;11.23;8.43;;;;;;;32.77;28.44;96594.28;5103442;28;20489;-66
2021/07/23 10:52:00;;;;;;;13.30;8.90;;;;;;;32.58;28.52;96591.78;5094576;28;20899;-66
2021/07/23 10:54:30;;;;;;;16.67;9.70;;;;;;;31.88;29.17;96584.00;5092850;28;20498;-67
2021/07/23 10:57:01;;;;;;;10.50;9.00;;;;;;;32.66;28.50;96585.63;5094158;28;20492;-66
2021/07/23 10:59:42;;;;;;;8.90;8.00;;;;;;;31.96;29.39;96585.13;5093976;28;20574;-67
2021/07/23 11:02:30;;;;;;;11.60;9.27;;;;;;;31.59;29.00;96582.44;5092880;28;20829;-67
2021/07/23 11:05:13;;;;;;;14.63;9.17;;;;;;;32.28;28.60;96575.22;5093531;28;20428;-65
2021/07/23 11:07:39;;;;;;;11.87;8.53;;;;;;;32.11;29.43;96567.75;5092502;28;20860;-66
2021/07/23 11:10:08;;;;;;;11.53;8.80;;;;;;;32.14;29.03;96570.63;5083879;28;20478;-65
2021/07/23 11:12:39;;;;;;;9.57;8.43;;;;;;;33.07;28.08;96562.03;5080238;28;20190;-67
2021/07/23 11:15:07;;;;;;;12.60;8.77;;;;;;;33.17;27.12;96569.88;5080429;28;20519;-65
2021/07/23 11:17:34;;;;;;;10.83;9.70;;;;;;;33.50;27.21;96569.53;5091685;28;20930;-65
2021/07/23 11:20:02;;;;;;;12.23;9.23;;;;;;;32.39;28.33;96565.72;5081175;28;20548;-65